首页
METAR-TAF:

METAR-TAF

机场 :

蒙特雷, 墨西哥

纬度: 25-47N, 经度: 100-06W, 海拔: 387米

当前天气观测

该预报发布于42分钟前的09:40 UTC
风速4节,风向
温度 15°C
湿度 94%
气压 1023 hPa
能見度: 4.8公里
多云层高于300英尺
阴天层高于800英尺
轻雾

METAR: MMMY 220940Z 19004KT 3SM BR BKN003 OVC008 15/14 A3020 RMK 8/7// OCNL DROPS

时间: 05:22 (10:22 UTC)

预报

该预报发布于1小时和4分钟前的09:18 UTC
预报有效从22日的 09点(UTC)到 23日的 06点(UTC)
风速10节,风向东转东南
能見度: 4.8公里
多云层高于300英尺
阴天层高于800英尺
轻雾
短暂存在
从 22日的 10点(UTC)到 22日的 14点(UTC)
能見度: 1.6公里
小毛毛雨, 轻雾
从 22日的 1600点(UTC)
风速8节,风向东转东南
能見度: 8.0公里
多云层高于800英尺
阴天层高于1200英尺
短暂存在
从 22日的 20点(UTC)到 22日的 24点(UTC)
能見度: 3.2公里
多云层高于800英尺
小毛毛雨
从 23日的 0200点(UTC)
风速5节,风向
能見度: 8.0公里
阴天层高于1200英尺
霾,

TAF: MMMY 220918Z 2209/2306 12010KT 3SM BR BKN003 OVC008 TX19/2222Z TN13/2212Z TEMPO 2210/2214 1SM -DZ BR FM221600 12008KT 5SM HZ BKN008 OVC012 TEMPO 2220/2224 2SM -DZ BKN008 FM230200 08005KT 5SM HZ OVC012

超过4000个机场的气象观测和天气预报(METAR&TAF报告)。

可查询的气象台以黄色和红色小点在地图上表示。

将鼠标移到小点上方,可查看气象台名称。

然后点击查看天气观测和预报。

如需切换地图:点击带黑十字的绿色按钮放大地图;点击带横线的绿色按钮缩小地图;或者点击绿色箭头查看邻近地区的地图。


METAR-TAF: